This is the latest recevied weather packets stored in our database for station/object JR4ZXW. If no packets are shown the sender has not sent any weather packets the latest 10 day(s).
| Time | Temp. | Humidity | Pressure | Rain* | Wind** | Luminosity | Snow |
|---|---|---|---|---|---|---|---|
| 1787627490 | 32.78° C | 55% | 1011.7 hPa | 0 mm | - | - | - |
| 1787625690 | 31.67° C | 57% | 1011.9 hPa | 0 mm | - | - | - |
| 1787623890 | 31.67° C | 55% | 1012.3 hPa | 0 mm | - | - | - |
| 1787622090 | 30.56° C | 64% | 1012.7 hPa | 0 mm | - | - | - |
| 1787620290 | 30.56° C | 66% | 1012.9 hPa | 0 mm | - | - | - |
| 1787618490 | 30.56° C | 67% | 1013.1 hPa | 0 mm | - | - | - |
| 1787616690 | 30° C | 69% | 1012.9 hPa | 0 mm | - | - | - |
| 1787614890 | 28.89° C | 72% | 1012.8 hPa | 0 mm | - | - | - |
| 1787613090 | 28.89° C | 74% | 1012.8 hPa | 0 mm | - | - | - |
| 1787611290 | 28.89° C | 76% | 1012.8 hPa | 0 mm | - | - | - |
| 1787609490 | 28.89° C | 77% | 1012.6 hPa | 0 mm | - | - | - |
| 1787607690 | 27.78° C | 80% | 1012.3 hPa | 0 mm | - | - | - |
| 1787605890 | 27.78° C | 81% | 1012.2 hPa | 0 mm | - | - | - |
| 1787604090 | 27.78° C | 79% | 1012.4 hPa | 0 mm | - | - | - |
| 1787602290 | 28.89° C | 75% | 1012.2 hPa | 0 mm | - | - | - |
| 1787600490 | 28.89° C | 72% | 1012.3 hPa | 0 mm | - | - | - |
| 1787598690 | 30° C | 64% | 1012 hPa | 0 mm | - | - | - |
| 1787596890 | 30° C | 68% | 1011.8 hPa | 0 mm | - | - | - |
| 1787595090 | 30° C | 67% | 1011.8 hPa | 0 mm | - | - | - |
| 1787593290 | 30° C | 67% | 1011.8 hPa | 0 mm | - | - | - |
| 1787591490 | 30° C | 65% | 1012 hPa | 0 mm | - | - | - |
| 1787589690 | 30° C | 60% | 1012.1 hPa | 0 mm | - | - | - |
| 1787587890 | 30° C | 57% | 1012.2 hPa | 0 mm | - | - | - |
| 1787586090 | 30.56° C | 57% | 1012.4 hPa | 0 mm | - | - | - |
| 1787584290 | 30.56° C | 60% | 1012.5 hPa | 0 mm | - | - | - |
* Rain latest hour (hover to see other rain measurements)
** Current wind speed in m/s (hover to see current wind gust speed)